Time;durP1;ratioP1;P1;durP2;ratioP2;P2;SDS_P1;SDS_P2;PMS_P1;PMS_P2;Temp;Humidity;BMP_temperature;BMP_pressure;BME280_temperature;BME280_humidity;BME280_pressure;Samples;Min_cycle;Max_cycle;Signal;HPM_P1;HPM_P2
2023/06/16 00:01:31;;;;;;;4.95;3.67;;;;;;;;;;5096216;28;20056;-61
2023/06/16 00:03:58;;;;;;;5.78;3.70;;;;;;;;;;5095469;28;20066;-61
2023/06/16 00:06:27;;;;;;;6.30;3.72;;;;;;;;;;5095733;28;20059;-61
2023/06/16 00:08:54;;;;;;;6.63;3.97;;;;;;;;;;5095732;28;20727;-62
2023/06/16 00:11:22;;;;;;;5.10;4.38;;;;;;;;;;5095875;28;20075;-61
2023/06/16 00:13:49;;;;;;;6.45;4.53;;;;;;;;;;5096193;28;20409;-61
2023/06/16 00:16:19;;;;;;;9.43;3.95;;;;;;;;;;5095091;28;20052;-61
2023/06/16 00:18:45;;;;;;;;;;;;;;;;;;5094808;28;20056;-61
2023/06/16 00:21:19;;;;;;;5.28;4.22;;;;;;;;;;5094072;28;20279;-61
2023/06/16 00:23:47;;;;;;;6.03;3.88;;;;;;;;;;5095322;28;20063;-61
2023/06/16 00:26:14;;;;;;;7.35;4.10;;;;;;;;;;5095594;28;20063;-61
2023/06/16 00:28:41;;;;;;;6.40;3.72;;;;;;;;;;5095875;28;20051;-62
2023/06/16 00:31:08;;;;;;;6.15;3.67;;;;;;;;;;5106038;28;20473;-61
2023/06/16 00:33:35;;;;;;;4.25;3.85;;;;;;;;;;5096857;28;20052;-61
2023/06/16 00:36:02;;;;;;;5.43;3.75;;;;;;;;;;5095749;28;20059;-61
2023/06/16 00:38:29;;;;;;;5.13;3.40;;;;;;;;;;5106054;28;20055;-62
2023/06/16 00:40:58;;;;;;;5.10;4.47;;;;;;;;;;5116021;28;20051;-61
2023/06/16 00:43:27;;;;;;;6.38;4.30;;;;;;;;;;5097924;28;20405;-61
2023/06/16 00:45:54;;;;;;;6.13;3.70;;;;;;;;;;5094272;28;20500;-61
2023/06/16 00:48:23;;;;;;;6.18;4.00;;;;;;;;;;5093969;28;20052;-61
2023/06/16 00:50:50;;;;;;;6.97;4.43;;;;;;;;;;5103700;28;20067;-61
2023/06/16 00:53:17;;;;;;;6.28;4.47;;;;;;;;;;5095008;28;20056;-61
2023/06/16 00:55:44;;;;;;;5.13;4.13;;;;;;;;;;5095209;28;20052;-61
2023/06/16 00:58:12;;;;;;;5.47;4.03;;;;;;;;;;5095323;28;20063;-61
2023/06/16 01:00:39;;;;;;;5.20;4.55;;;;;;;;;;5087858;28;20056;-62
2023/06/16 01:03:09;;;;;;;5.50;4.20;;;;;;;;;;5074907;28;20049;-61
2023/06/16 01:05:36;;;;;;;5.07;4.15;;;;;;;;;;5094059;28;21233;-61
2023/06/16 01:08:09;;;;;;;6.28;4.40;;;;;;;;;;5093606;28;20539;-61
2023/06/16 01:10:40;;;;;;;7.25;4.32;;;;;;;;;;5094663;28;20052;-62
2023/06/16 01:13:11;;;;;;;5.63;4.47;;;;;;;;;;5110887;28;20056;-61
2023/06/16 01:15:42;;;;;;;4.45;3.75;;;;;;;;;;5102109;28;20048;-61
2023/06/16 01:18:09;;;;;;;4.85;4.35;;;;;;;;;;5090685;28;20052;-61
2023/06/16 01:20:41;;;;;;;6.25;3.92;;;;;;;;;;5094607;28;20062;-61
2023/06/16 01:23:14;;;;;;;6.15;4.25;;;;;;;;;;5094878;28;20063;-62
2023/06/16 01:25:44;;;;;;;7.78;4.57;;;;;;;;;;5093818;28;20048;-61
2023/06/16 01:28:12;;;;;;;5.50;4.50;;;;;;;;;;5094794;28;20055;-61
2023/06/16 01:30:42;;;;;;;5.22;4.50;;;;;;;;;;5092332;28;20048;-61
2023/06/16 01:33:10;;;;;;;7.45;5.03;;;;;;;;;;5093464;28;20044;-61
2023/06/16 01:35:37;;;;;;;8.55;5.38;;;;;;;;;;5106682;28;20495;-61
2023/06/16 01:38:04;;;;;;;6.38;4.47;;;;;;;;;;5114556;28;20051;-61
2023/06/16 01:40:32;;;;;;;6.55;4.45;;;;;;;;;;5113307;28;20063;-62
2023/06/16 01:43:01;;;;;;;6.45;4.45;;;;;;;;;;5094437;28;20477;-62
2023/06/16 01:45:28;;;;;;;6.73;4.67;;;;;;;;;;5091738;28;20051;-62
2023/06/16 01:47:55;;;;;;;5.90;4.38;;;;;;;;;;5086835;28;20055;-62
2023/06/16 01:50:22;;;;;;;6.03;4.55;;;;;;;;;;5072240;28;20059;-62
2023/06/16 01:52:49;;;;;;;7.80;4.45;;;;;;;;;;5067571;28;20053;-62
2023/06/16 01:55:16;;;;;;;5.07;4.30;;;;;;;;;;5073124;28;20382;-61
2023/06/16 01:57:43;;;;;;;8.25;4.65;;;;;;;;;;5073505;28;20052;-62
2023/06/16 02:00:14;;;;;;;7.32;3.83;;;;;;;;;;5094128;28;20055;-62
2023/06/16 02:02:44;;;;;;;8.13;5.30;;;;;;;;;;5093527;28;20052;-62
2023/06/16 02:05:11;;;;;;;6.15;4.35;;;;;;;;;;5092222;28;20542;-62
2023/06/16 02:07:42;;;;;;;7.00;4.72;;;;;;;;;;5105999;28;20063;-62
2023/06/16 02:10:11;;;;;;;7.55;4.68;;;;;;;;;;5113489;28;20451;-62
2023/06/16 02:12:38;;;;;;;5.03;4.17;;;;;;;;;;5113827;28;20052;-62
2023/06/16 02:15:06;;;;;;;5.72;4.82;;;;;;;;;;5114175;28;20408;-62
2023/06/16 02:17:34;;;;;;;6.03;3.70;;;;;;;;;;5114235;28;20048;-62
2023/06/16 02:20:04;;;;;;;7.05;4.63;;;;;;;;;;5110684;28;20056;-62
2023/06/16 02:22:31;;;;;;;4.60;4.13;;;;;;;;;;5114341;28;20052;-61
2023/06/16 02:24:58;;;;;;;6.25;4.72;;;;;;;;;;5113734;28;20070;-62
2023/06/16 02:27:25;;;;;;;6.80;4.93;;;;;;;;;;5114041;28;20051;-61
2023/06/16 02:29:51;;;;;;;7.85;4.45;;;;;;;;;;5112709;28;20056;-62
2023/06/16 02:32:18;;;;;;;5.50;4.55;;;;;;;;;;5114043;28;20056;-62
2023/06/16 02:34:46;;;;;;;8.18;4.70;;;;;;;;;;5111585;28;20059;-61
2023/06/16 02:37:14;;;;;;;6.13;4.55;;;;;;;;;;5113877;28;20059;-61
2023/06/16 02:39:41;;;;;;;5.68;4.50;;;;;;;;;;5111985;28;20058;-62
2023/06/16 02:42:08;;;;;;;8.15;5.00;;;;;;;;;;5114018;28;20055;-62
2023/06/16 02:44:35;;;;;;;6.63;4.57;;;;;;;;;;5113375;28;20051;-61
2023/06/16 02:47:03;;;;;;;7.93;4.93;;;;;;;;;;5101828;28;20059;-62
2023/06/16 02:49:30;;;;;;;5.18;4.10;;;;;;;;;;5089499;28;20044;-63
2023/06/16 02:51:59;;;;;;;6.25;4.60;;;;;;;;;;5091608;28;20059;-62
2023/06/16 02:54:26;;;;;;;6.22;4.57;;;;;;;;;;5093168;28;20484;-62
2023/06/16 02:56:55;;;;;;;7.20;4.70;;;;;;;;;;5093193;28;20056;-63
2023/06/16 02:59:23;;;;;;;6.40;4.03;;;;;;;;;;5086177;28;20048;-62
2023/06/16 03:01:53;;;;;;;6.40;4.72;;;;;;;;;;5090957;28;20055;-63
2023/06/16 03:04:19;;;;;;;6.50;4.43;;;;;;;;;;5090389;28;20056;-62
2023/06/16 03:06:47;;;;;;;5.88;4.45;;;;;;;;;;5091877;28;20066;-63
2023/06/16 03:09:15;;;;;;;6.50;4.53;;;;;;;;;;5091329;28;20052;-62
2023/06/16 03:11:42;;;;;;;6.93;4.55;;;;;;;;;;5090678;28;20493;-62
2023/06/16 03:14:09;;;;;;;5.53;4.95;;;;;;;;;;5092381;28;20048;-62
2023/06/16 03:16:40;;;;;;;5.53;4.15;;;;;;;;;;5093161;28;20056;-62
2023/06/16 03:19:07;;;;;;;6.97;4.68;;;;;;;;;;5091511;28;20048;-62
2023/06/16 03:21:34;;;;;;;4.97;4.00;;;;;;;;;;5092707;28;20059;-62
2023/06/16 03:24:01;;;;;;;6.75;4.75;;;;;;;;;;5092535;28;20439;-63
2023/06/16 03:26:31;;;;;;;4.90;4.40;;;;;;;;;;5092782;28;20488;-62
2023/06/16 03:28:58;;;;;;;6.32;4.60;;;;;;;;;;5090706;28;20048;-62
2023/06/16 03:31:25;;;;;;;6.15;4.10;;;;;;;;;;5091086;28;20079;-62
2023/06/16 03:33:52;;;;;;;5.18;3.65;;;;;;;;;;5087182;28;20079;-62
2023/06/16 03:36:19;;;;;;;5.53;4.15;;;;;;;;;;5092672;28;20063;-62
2023/06/16 03:38:45;;;;;;;7.15;4.30;;;;;;;;;;5091001;28;20052;-63
2023/06/16 03:41:12;;;;;;;6.30;4.22;;;;;;;;;;5112910;28;20058;-62
2023/06/16 03:43:40;;;;;;;6.57;4.85;;;;;;;;;;5112713;28;20069;-62
2023/06/16 03:46:08;;;;;;;7.47;4.75;;;;;;;;;;5108925;28;20048;-63
2023/06/16 03:48:35;;;;;;;6.40;4.20;;;;;;;;;;5112567;28;20047;-62
2023/06/16 03:51:02;;;;;;;7.75;4.68;;;;;;;;;;5112888;28;20058;-62
2023/06/16 03:53:28;;;;;;;5.38;4.28;;;;;;;;;;5112990;28;20051;-62
2023/06/16 03:55:56;;;;;;;6.57;4.28;;;;;;;;;;5112567;28;20079;-62
2023/06/16 03:58:23;;;;;;;8.57;4.05;;;;;;;;;;5112191;28;20043;-63
2023/06/16 04:00:53;;;;;;;7.38;4.25;;;;;;;;;;5112393;28;20070;-62
2023/06/16 04:03:20;;;;;;;;;;;;;;;;;;5108083;28;20044;-62
2023/06/16 04:05:46;;;;;;;6.00;4.90;;;;;;;;;;5107960;28;19928;-61
2023/06/16 04:08:13;;;;;;;6.95;4.35;;;;;;;;;;5112607;28;20059;-61
2023/06/16 04:10:40;;;;;;;6.30;4.30;;;;;;;;;;5112500;28;20063;-61
2023/06/16 04:13:07;;;;;;;7.30;4.53;;;;;;;;;;5118367;28;20376;-62
2023/06/16 04:15:34;;;;;;;5.60;4.22;;;;;;;;;;5117069;28;20055;-61
2023/06/16 04:18:02;;;;;;;5.53;4.38;;;;;;;;;;5114289;27;20059;-61
2023/06/16 04:20:29;;;;;;;8.23;4.10;;;;;;;;;;5115988;28;20070;-61
2023/06/16 04:22:56;;;;;;;7.85;4.43;;;;;;;;;;5115991;28;20055;-60
2023/06/16 04:25:23;;;;;;;6.40;3.88;;;;;;;;;;5114802;28;20052;-61
2023/06/16 04:27:50;;;;;;;6.68;4.18;;;;;;;;;;5116577;28;20062;-61
2023/06/16 04:30:24;;;;;;;5.93;4.05;;;;;;;;;;5115973;28;20047;-62
2023/06/16 04:32:50;;;;;;;6.78;4.05;;;;;;;;;;5115792;28;20058;-62
2023/06/16 04:35:18;;;;;;;7.82;4.68;;;;;;;;;;5111920;28;20048;-62
2023/06/16 04:37:45;;;;;;;6.55;4.40;;;;;;;;;;5116191;28;20062;-62
2023/06/16 04:40:12;;;;;;;6.72;4.00;;;;;;;;;;5115491;28;20048;-62
2023/06/16 04:42:39;;;;;;;7.18;4.70;;;;;;;;;;5115390;28;20063;-63
2023/06/16 04:45:07;;;;;;;5.40;4.30;;;;;;;;;;5111339;28;20055;-63
2023/06/16 04:47:35;;;;;;;5.60;4.35;;;;;;;;;;5116232;28;20476;-62
2023/06/16 04:50:02;;;;;;;7.13;5.22;;;;;;;;;;5118372;27;20054;-62
2023/06/16 04:52:30;;;;;;;6.50;5.40;;;;;;;;;;5109517;27;20067;-62
2023/06/16 04:54:58;;;;;;;6.97;5.57;;;;;;;;;;5121304;27;20101;-62
2023/06/16 04:57:25;;;;;;;7.93;5.53;;;;;;;;;;5122048;27;20051;-63
2023/06/16 04:59:51;;;;;;;7.40;5.53;;;;;;;;;;5115024;28;20059;-62
2023/06/16 05:02:18;;;;;;;7.35;5.47;;;;;;;;;;5114669;28;20055;-62
2023/06/16 05:04:45;;;;;;;8.70;6.18;;;;;;;;;;5110108;28;20055;-63
2023/06/16 05:07:12;;;;;;;10.15;5.80;;;;;;;;;;5107239;28;20404;-62
2023/06/16 05:09:40;;;;;;;6.35;5.30;;;;;;;;;;5114737;28;20052;-63
2023/06/16 05:12:07;;;;;;;8.85;5.75;;;;;;;;;;5102786;28;20063;-62
2023/06/16 05:14:34;;;;;;;9.90;6.07;;;;;;;;;;5105046;28;20051;-62
2023/06/16 05:17:01;;;;;;;8.75;5.97;;;;;;;;;;5105572;28;20044;-63
2023/06/16 05:19:30;;;;;;;8.00;7.00;;;;;;;;;;5106735;28;20044;-63
2023/06/16 05:21:56;;;;;;;7.00;6.03;;;;;;;;;;5105114;28;20062;-63
2023/06/16 05:24:23;;;;;;;8.90;6.13;;;;;;;;;;5102908;28;20386;-62
2023/06/16 05:26:51;;;;;;;7.13;5.28;;;;;;;;;;5113868;27;20052;-63
2023/06/16 05:29:18;;;;;;;11.23;6.88;;;;;;;;;;5114228;28;20052;-62
2023/06/16 05:31:45;;;;;;;7.35;4.95;;;;;;;;;;5115006;28;20476;-63
2023/06/16 05:34:12;;;;;;;6.85;5.05;;;;;;;;;;5111193;28;20056;-62
2023/06/16 05:36:39;;;;;;;7.18;5.63;;;;;;;;;;5114304;27;20051;-62
2023/06/16 05:39:06;;;;;;;7.70;5.70;;;;;;;;;;5111890;28;20047;-62
2023/06/16 05:41:34;;;;;;;7.75;5.60;;;;;;;;;;5113301;27;20051;-61
2023/06/16 05:44:03;;;;;;;9.35;5.20;;;;;;;;;;5109221;28;20416;-62
2023/06/16 05:46:29;;;;;;;7.13;5.32;;;;;;;;;;5103723;28;20470;-62
2023/06/16 05:48:57;;;;;;;8.90;5.95;;;;;;;;;;5103962;28;20369;-62
2023/06/16 05:51:24;;;;;;;7.65;5.03;;;;;;;;;;5110009;27;20052;-62
2023/06/16 05:53:51;;;;;;;8.63;5.65;;;;;;;;;;5111767;28;20063;-62
2023/06/16 05:56:18;;;;;;;12.35;6.68;;;;;;;;;;5111499;28;20047;-63
2023/06/16 05:58:45;;;;;;;9.05;6.43;;;;;;;;;;5112977;28;20052;-62
2023/06/16 06:01:14;;;;;;;8.82;6.15;;;;;;;;;;5103243;28;20350;-62
2023/06/16 06:03:44;;;;;;;7.97;5.05;;;;;;;;;;5112813;28;20056;-62
2023/06/16 06:06:10;;;;;;;;;;;;;;;;;;5102232;28;20067;-63
2023/06/16 06:08:37;;;;;;;13.52;6.70;;;;;;;;;;5109233;28;20304;-62
2023/06/16 06:11:06;;;;;;;7.75;5.90;;;;;;;;;;5106562;28;20051;-62
2023/06/16 06:13:33;;;;;;;9.68;6.78;;;;;;;;;;5101191;28;20056;-63
2023/06/16 06:16:01;;;;;;;6.65;5.85;;;;;;;;;;5099272;28;20052;-63
2023/06/16 06:18:29;;;;;;;7.22;5.38;;;;;;;;;;5107159;27;20063;-62
2023/06/16 06:20:56;;;;;;;10.25;5.63;;;;;;;;;;5121025;27;20055;-62
2023/06/16 06:23:23;;;;;;;12.05;7.35;;;;;;;;;;5113374;28;20054;-62
2023/06/16 06:25:50;;;;;;;11.07;7.10;;;;;;;;;;5112777;28;20058;-61
2023/06/16 06:28:17;;;;;;;11.30;7.28;;;;;;;;;;5110334;28;20055;-62
2023/06/16 06:30:43;;;;;;;12.55;7.95;;;;;;;;;;5113511;28;20051;-62
2023/06/16 06:33:10;;;;;;;10.25;7.13;;;;;;;;;;5113535;28;20052;-62
2023/06/16 06:35:38;;;;;;;8.70;6.28;;;;;;;;;;5109295;28;20072;-62
2023/06/16 06:38:05;;;;;;;9.32;6.45;;;;;;;;;;5113378;28;20048;-62
2023/06/16 06:40:34;;;;;;;8.77;6.65;;;;;;;;;;5112927;28;20127;-62
2023/06/16 06:43:01;;;;;;;9.30;6.65;;;;;;;;;;5113043;28;20060;-62
2023/06/16 06:45:28;;;;;;;8.98;5.90;;;;;;;;;;5112757;28;20047;-62
2023/06/16 06:47:55;;;;;;;7.78;5.97;;;;;;;;;;5113198;28;20054;-62
2023/06/16 06:50:22;;;;;;;8.15;5.63;;;;;;;;;;5109736;28;20044;-63
2023/06/16 06:52:50;;;;;;;9.30;6.35;;;;;;;;;;5110158;28;20048;-63
2023/06/16 06:55:17;;;;;;;9.38;5.70;;;;;;;;;;5113042;28;20439;-61
2023/06/16 06:57:44;;;;;;;7.53;5.80;;;;;;;;;;5113217;28;20058;-62
2023/06/16 07:00:11;;;;;;;9.80;6.32;;;;;;;;;;5110741;28;20435;-62
2023/06/16 07:02:38;;;;;;;6.93;5.82;;;;;;;;;;5100536;28;20589;-62
2023/06/16 07:05:06;;;;;;;8.32;6.13;;;;;;;;;;5108886;28;20071;-62
2023/06/16 07:07:33;;;;;;;6.82;5.25;;;;;;;;;;5111452;27;20055;-62
2023/06/16 07:10:01;;;;;;;12.02;6.90;;;;;;;;;;5112826;28;20059;-62
2023/06/16 07:12:28;;;;;;;15.95;11.00;;;;;;;;;;5113105;28;20051;-62
2023/06/16 07:14:55;;;;;;;8.63;4.85;;;;;;;;;;5111014;27;20048;-62
2023/06/16 07:17:21;;;;;;;5.57;4.60;;;;;;;;;;5113130;28;20048;-62
2023/06/16 07:19:48;;;;;;;15.98;9.95;;;;;;;;;;5112486;28;20051;-62
2023/06/16 07:22:16;;;;;;;20.75;12.70;;;;;;;;;;5112082;28;20052;-62
2023/06/16 07:24:42;;;;;;;9.20;5.30;;;;;;;;;;5112492;28;20055;-62
2023/06/16 07:27:10;;;;;;;62.17;21.83;;;;;;;;;;5112705;28;20058;-61
2023/06/16 07:29:37;;;;;;;19.30;10.25;;;;;;;;;;5112389;28;20063;-60
2023/06/16 07:32:05;;;;;;;9.02;5.38;;;;;;;;;;5105044;28;20051;-60
2023/06/16 07:34:33;;;;;;;6.93;4.78;;;;;;;;;;5112376;28;20052;-60
2023/06/16 07:37:00;;;;;;;10.45;6.10;;;;;;;;;;5093319;28;20051;-61
2023/06/16 07:39:26;;;;;;;10.88;5.78;;;;;;;;;;5112129;28;20051;-61
2023/06/16 07:41:53;;;;;;;6.82;4.60;;;;;;;;;;5108968;28;20063;-61
2023/06/16 07:44:21;;;;;;;9.30;4.72;;;;;;;;;;5112643;28;20051;-61
2023/06/16 07:46:48;;;;;;;8.48;5.00;;;;;;;;;;5109511;28;20052;-61
2023/06/16 07:49:15;;;;;;;15.77;5.18;;;;;;;;;;5113318;28;20051;-61
2023/06/16 07:51:42;;;;;;;10.52;4.63;;;;;;;;;;5107348;28;20051;-60
2023/06/16 07:54:09;;;;;;;13.57;4.60;;;;;;;;;;5113210;28;20047;-61
2023/06/16 07:56:36;;;;;;;6.05;3.85;;;;;;;;;;5116560;28;20047;-61
2023/06/16 07:59:02;;;;;;;7.47;4.15;;;;;;;;;;5116411;28;20063;-61
2023/06/16 08:01:31;;;;;;;7.10;4.22;;;;;;;;;;5114651;28;20039;-61
2023/06/16 08:03:58;;;;;;;5.53;3.77;;;;;;;;;;5116396;28;20055;-61
2023/06/16 08:06:25;;;;;;;5.80;4.28;;;;;;;;;;5111842;28;20063;-61
2023/06/16 08:08:52;;;;;;;4.28;3.85;;;;;;;;;;5116555;28;20063;-61
2023/06/16 08:11:19;;;;;;;6.13;3.88;;;;;;;;;;5112855;28;20044;-62
2023/06/16 08:13:46;;;;;;;8.45;3.72;;;;;;;;;;5107670;28;20048;-63
2023/06/16 08:16:17;;;;;;;3.95;3.20;;;;;;;;;;5095632;28;20052;-62
2023/06/16 08:18:46;;;;;;;3.85;3.42;;;;;;;;;;5109288;27;20051;-63
2023/06/16 08:21:12;;;;;;;3.55;3.22;;;;;;;;;;5131325;27;20399;-64
2023/06/16 08:23:39;;;;;;;4.10;2.80;;;;;;;;;;5116100;28;20051;-63
2023/06/16 08:26:06;;;;;;;4.60;3.20;;;;;;;;;;5115898;28;20353;-63
2023/06/16 08:28:34;;;;;;;5.38;3.50;;;;;;;;;;5113167;27;20052;-64
2023/06/16 08:31:00;;;;;;;3.70;2.70;;;;;;;;;;5115260;28;20043;-63
2023/06/16 08:33:36;;;;;;;4.15;2.80;;;;;;;;;;5115741;28;20058;-64
2023/06/16 08:36:04;;;;;;;6.15;3.00;;;;;;;;;;5117816;27;20415;-64
2023/06/16 08:38:31;;;;;;;;;;;;;;;;;;5116316;28;20074;-64
2023/06/16 08:40:58;;;;;;;3.40;2.78;;;;;;;;;;5115426;28;19938;-63
2023/06/16 08:43:26;;;;;;;6.70;3.05;;;;;;;;;;5116007;28;20054;-63
2023/06/16 08:45:53;;;;;;;4.90;2.63;;;;;;;;;;5114092;28;20059;-64
2023/06/16 08:48:20;;;;;;;7.82;3.00;;;;;;;;;;5115735;28;20055;-64
2023/06/16 08:50:47;;;;;;;4.75;2.60;;;;;;;;;;5111821;28;20058;-63
2023/06/16 08:53:17;;;;;;;5.15;2.90;;;;;;;;;;5116197;28;20062;-63
2023/06/16 08:55:44;;;;;;;5.45;3.10;;;;;;;;;;5113782;28;20051;-64
2023/06/16 08:58:13;;;;;;;4.10;2.67;;;;;;;;;;5115632;28;20052;-64
2023/06/16 09:00:41;;;;;;;4.05;2.90;;;;;;;;;;5115203;28;20063;-64
2023/06/16 09:03:08;;;;;;;3.60;2.88;;;;;;;;;;5110742;28;20070;-64
2023/06/16 09:05:35;;;;;;;4.72;2.80;;;;;;;;;;5111748;28;20399;-64
2023/06/16 09:08:03;;;;;;;4.18;2.88;;;;;;;;;;5115580;28;20048;-64
2023/06/16 09:10:29;;;;;;;;;;;;;;;;;;5115743;28;20330;-64
2023/06/16 09:12:59;;;;;;;5.55;3.05;;;;;;;;;;5113713;28;20372;-64
2023/06/16 09:15:26;;;;;;;4.68;2.97;;;;;;;;;;5115227;28;20531;-64
2023/06/16 09:17:56;;;;;;;4.13;2.80;;;;;;;;;;5113152;28;20063;-64
2023/06/16 09:20:23;;;;;;;6.90;3.20;;;;;;;;;;5130468;27;20051;-64
2023/06/16 09:22:51;;;;;;;3.90;2.72;;;;;;;;;;5114259;27;20048;-64
2023/06/16 09:25:18;;;;;;;3.80;2.80;;;;;;;;;;5115097;28;20412;-64
2023/06/16 09:27:45;;;;;;;4.35;2.90;;;;;;;;;;5114868;28;20052;-64
2023/06/16 09:30:14;;;;;;;4.63;3.15;;;;;;;;;;5115028;28;20052;-64
2023/06/16 09:32:41;;;;;;;7.20;3.22;;;;;;;;;;5113616;28;20052;-64
2023/06/16 09:35:15;;;;;;;3.85;2.80;;;;;;;;;;5114765;28;20058;-64
2023/06/16 09:37:42;;;;;;;4.90;3.10;;;;;;;;;;5107449;28;20063;-64
2023/06/16 09:40:09;;;;;;;4.78;3.20;;;;;;;;;;5113416;28;20428;-64
2023/06/16 09:42:36;;;;;;;;;;;;;;;;;;5115177;28;20059;-64
2023/06/16 09:45:08;;;;;;;3.42;3.13;;;;;;;;;;5110253;28;19919;-63
2023/06/16 09:47:37;;;;;;;6.97;3.30;;;;;;;;;;5112781;28;20069;-63
2023/06/16 09:50:05;;;;;;;4.93;3.40;;;;;;;;;;5114757;28;20055;-63
2023/06/16 09:52:33;;;;;;;4.20;3.13;;;;;;;;;;5109673;28;20056;-64
2023/06/16 09:55:01;;;;;;;5.07;3.10;;;;;;;;;;5114826;28;20062;-62
2023/06/16 09:57:28;;;;;;;8.95;5.22;;;;;;;;;;5114592;28;20051;-63
2023/06/16 09:59:55;;;;;;;4.25;2.60;;;;;;;;;;5114070;28;20052;-63
2023/06/16 10:02:24;;;;;;;3.80;3.10;;;;;;;;;;5109685;28;20050;-63
2023/06/16 10:04:54;;;;;;;4.35;2.95;;;;;;;;;;5114306;28;20404;-63
2023/06/16 10:07:21;;;;;;;3.33;3.03;;;;;;;;;;5111635;27;20047;-63
2023/06/16 10:09:49;;;;;;;4.90;3.20;;;;;;;;;;5114163;28;20051;-64
2023/06/16 10:12:16;;;;;;;5.03;3.50;;;;;;;;;;5107152;28;20044;-63
2023/06/16 10:14:44;;;;;;;5.18;2.97;;;;;;;;;;5106828;28;20052;-63
2023/06/16 10:17:11;;;;;;;4.10;3.08;;;;;;;;;;5114006;28;20591;-64
2023/06/16 10:19:39;;;;;;;3.60;3.03;;;;;;;;;;5118246;27;20058;-64
2023/06/16 10:22:07;;;;;;;3.88;2.95;;;;;;;;;;5125842;27;20051;-64
2023/06/16 10:24:36;;;;;;;3.65;3.00;;;;;;;;;;5113835;28;20052;-64
2023/06/16 10:27:07;;;;;;;4.82;3.28;;;;;;;;;;5114196;28;20055;-64
2023/06/16 10:29:34;;;;;;;10.32;3.80;;;;;;;;;;5113498;28;20417;-64
2023/06/16 10:32:06;;;;;;;5.90;3.03;;;;;;;;;;5111723;28;20054;-64
2023/06/16 10:34:34;;;;;;;4.13;3.10;;;;;;;;;;5113889;28;20058;-65
2023/06/16 10:37:02;;;;;;;3.55;3.22;;;;;;;;;;5108901;28;20048;-64
2023/06/16 10:39:34;;;;;;;4.40;3.08;;;;;;;;;;5113503;28;20066;-64
2023/06/16 10:42:01;;;;;;;3.10;2.80;;;;;;;;;;5111733;28;20048;-64
2023/06/16 10:44:29;;;;;;;3.30;3.00;;;;;;;;;;5113463;28;20051;-64
2023/06/16 10:47:10;;;;;;;5.18;3.33;;;;;;;;;;5113557;28;20047;-64
2023/06/16 10:49:44;;;;;;;3.40;3.10;;;;;;;;;;5096397;28;20058;-64
2023/06/16 10:52:16;;;;;;;4.03;3.00;;;;;;;;;;5108742;28;20048;-63
2023/06/16 10:54:45;;;;;;;4.80;3.95;;;;;;;;;;5113375;28;20055;-64
2023/06/16 10:57:13;;;;;;;3.05;2.50;;;;;;;;;;5110330;28;20059;-63
2023/06/16 10:59:53;;;;;;;4.05;3.35;;;;;;;;;;5113021;28;20063;-63
2023/06/16 11:02:21;;;;;;;3.90;3.10;;;;;;;;;;5109988;28;20048;-63
2023/06/16 11:05:04;;;;;;;3.40;2.88;;;;;;;;;;5113528;28;20051;-64
2023/06/16 11:07:31;;;;;;;3.47;2.95;;;;;;;;;;5109570;28;20051;-64
2023/06/16 11:09:59;;;;;;;3.20;2.90;;;;;;;;;;5108551;28;20377;-63
2023/06/16 11:12:26;;;;;;;4.13;2.92;;;;;;;;;;5113078;28;20074;-64
2023/06/16 11:14:55;;;;;;;3.10;2.80;;;;;;;;;;5112621;28;20488;-64
2023/06/16 11:17:22;;;;;;;3.40;3.10;;;;;;;;;;5113028;28;20056;-64
2023/06/16 11:19:49;;;;;;;;;;;;;;;;;;5108483;28;20492;-64
2023/06/16 11:22:16;;;;;;;3.10;2.70;;;;;;;;;;5107977;28;20281;-65
2023/06/16 11:24:42;;;;;;;4.00;3.20;;;;;;;;;;5112570;28;20051;-64
2023/06/16 11:27:12;;;;;;;4.03;3.03;;;;;;;;;;5112255;28;20150;-64
2023/06/16 11:29:39;;;;;;;3.55;2.70;;;;;;;;;;5110223;28;20070;-64
2023/06/16 11:32:05;;;;;;;;;;;;;;;;;;5113217;28;20126;-63
2023/06/16 11:34:32;;;;;;;3.95;3.20;;;;;;;;;;5112879;28;19931;-64
2023/06/16 11:36:59;;;;;;;3.90;2.70;;;;;;;;;;5111007;28;20051;-65
2023/06/16 11:39:26;;;;;;;5.72;2.90;;;;;;;;;;5107178;28;20062;-64
2023/06/16 11:41:56;;;;;;;3.33;3.03;;;;;;;;;;5111753;28;20494;-64
2023/06/16 11:44:26;;;;;;;4.00;3.20;;;;;;;;;;5112654;28;20063;-64
2023/06/16 11:46:52;;;;;;;4.30;3.03;;;;;;;;;;5111201;28;20047;-65
2023/06/16 11:49:19;;;;;;;3.45;3.00;;;;;;;;;;5112726;28;20055;-65
2023/06/16 11:51:47;;;;;;;4.65;2.90;;;;;;;;;;5110529;28;20377;-65
2023/06/16 11:54:15;;;;;;;5.72;3.33;;;;;;;;;;5112844;28;20054;-65
2023/06/16 11:56:42;;;;;;;3.63;2.83;;;;;;;;;;5111943;28;20059;-64
2023/06/16 11:59:12;;;;;;;3.75;2.90;;;;;;;;;;5112323;28;20063;-64
2023/06/16 12:01:42;;;;;;;4.32;3.05;;;;;;;;;;5112637;28;20056;-64
2023/06/16 12:04:09;;;;;;;3.97;2.90;;;;;;;;;;5111448;28;20404;-64
2023/06/16 12:06:37;;;;;;;5.72;3.28;;;;;;;;;;5114253;28;20484;-65
2023/06/16 12:09:04;;;;;;;3.40;3.10;;;;;;;;;;5112273;28;20047;-65
2023/06/16 12:11:32;;;;;;;3.88;3.00;;;;;;;;;;5112402;28;20063;-64
2023/06/16 12:14:00;;;;;;;3.50;2.90;;;;;;;;;;5112599;28;20051;-65
2023/06/16 12:16:27;;;;;;;6.90;3.47;;;;;;;;;;5110914;28;20500;-64
2023/06/16 12:18:57;;;;;;;3.58;3.10;;;;;;;;;;5108184;28;20055;-65
2023/06/16 12:21:24;;;;;;;3.50;3.20;;;;;;;;;;5102995;28;20044;-64
2023/06/16 12:23:52;;;;;;;4.88;3.17;;;;;;;;;;5112259;28;20043;-64
2023/06/16 12:26:29;;;;;;;3.40;2.75;;;;;;;;;;5110489;28;20051;-65
2023/06/16 12:28:57;;;;;;;5.65;3.17;;;;;;;;;;5111843;28;20052;-65
2023/06/16 12:31:26;;;;;;;3.53;3.00;;;;;;;;;;5108456;28;20048;-64
2023/06/16 12:33:53;;;;;;;4.25;3.10;;;;;;;;;;5132813;28;20051;-64
2023/06/16 12:36:21;;;;;;;3.42;2.70;;;;;;;;;;5116829;28;20058;-64
2023/06/16 12:38:48;;;;;;;4.35;3.30;;;;;;;;;;5108799;28;20052;-64
2023/06/16 12:41:16;;;;;;;3.20;2.90;;;;;;;;;;5115779;28;20407;-64
2023/06/16 12:43:47;;;;;;;3.45;3.15;;;;;;;;;;5115661;28;20051;-64
2023/06/16 12:46:13;;;;;;;3.60;3.30;;;;;;;;;;5113914;28;20058;-65
2023/06/16 12:48:40;;;;;;;3.38;3.08;;;;;;;;;;5115781;28;20078;-65
2023/06/16 12:51:07;;;;;;;4.73;2.90;;;;;;;;;;5110792;27;20054;-65
2023/06/16 12:53:40;;;;;;;6.87;3.30;;;;;;;;;;5115249;28;20485;-64
2023/06/16 12:56:09;;;;;;;3.70;3.20;;;;;;;;;;5115372;28;20489;-64
2023/06/16 12:58:36;;;;;;;6.80;3.47;;;;;;;;;;5115299;28;20047;-64
2023/06/16 13:01:03;;;;;;;4.43;3.10;;;;;;;;;;5113657;28;20048;-65
2023/06/16 13:03:30;;;;;;;5.28;3.63;;;;;;;;;;5115658;28;20058;-65
2023/06/16 13:05:57;;;;;;;4.40;3.20;;;;;;;;;;5113833;27;20039;-65
2023/06/16 13:08:23;;;;;;;3.57;3.20;;;;;;;;;;5115377;28;20056;-64
2023/06/16 13:10:52;;;;;;;4.68;3.22;;;;;;;;;;5113077;28;20072;-65
2023/06/16 13:13:18;;;;;;;4.20;3.10;;;;;;;;;;5112296;28;20043;-64
2023/06/16 13:15:46;;;;;;;3.70;3.00;;;;;;;;;;5112711;28;20062;-65
2023/06/16 13:18:13;;;;;;;;;;;;;;;;;;5111109;28;20059;-64
2023/06/16 13:20:40;;;;;;;5.50;3.30;;;;;;;;;;5112267;28;19919;-64
2023/06/16 13:23:06;;;;;;;3.75;2.92;;;;;;;;;;5110639;28;20043;-64
2023/06/16 13:25:33;;;;;;;5.13;2.90;;;;;;;;;;5114883;28;20056;-64
2023/06/16 13:28:02;;;;;;;4.72;3.10;;;;;;;;;;5114937;28;20052;-64
2023/06/16 13:30:29;;;;;;;4.55;3.40;;;;;;;;;;5114444;28;20480;-64
2023/06/16 13:32:56;;;;;;;5.50;3.05;;;;;;;;;;5112480;28;20051;-64
2023/06/16 13:35:22;;;;;;;6.10;3.40;;;;;;;;;;5114500;28;20059;-64
2023/06/16 13:37:49;;;;;;;4.03;2.95;;;;;;;;;;5108943;28;20063;-64
2023/06/16 13:40:16;;;;;;;3.70;3.25;;;;;;;;;;5112601;28;20078;-64
2023/06/16 13:42:43;;;;;;;3.50;3.20;;;;;;;;;;5104424;27;20057;-64
2023/06/16 13:45:11;;;;;;;5.60;3.40;;;;;;;;;;5116220;27;20048;-65
2023/06/16 13:47:38;;;;;;;4.10;3.03;;;;;;;;;;5112006;28;20051;-65
2023/06/16 13:50:06;;;;;;;3.22;2.92;;;;;;;;;;5098191;27;20051;-64
2023/06/16 13:52:33;;;;;;;5.07;3.70;;;;;;;;;;5101604;28;20055;-66
2023/06/16 13:54:59;;;;;;;3.95;3.50;;;;;;;;;;5112035;28;20059;-66
2023/06/16 13:57:26;;;;;;;5.07;3.55;;;;;;;;;;5109680;28;20388;-66
2023/06/16 13:59:53;;;;;;;3.50;3.17;;;;;;;;;;5106257;28;20051;-66
2023/06/16 14:02:21;;;;;;;3.83;3.20;;;;;;;;;;5105708;28;20052;-66
2023/06/16 14:04:48;;;;;;;4.45;3.28;;;;;;;;;;5114178;28;20051;-66
2023/06/16 14:07:15;;;;;;;4.00;3.33;;;;;;;;;;5109891;28;20059;-66
2023/06/16 14:09:42;;;;;;;4.68;3.20;;;;;;;;;;5113574;28;20052;-66
2023/06/16 14:12:09;;;;;;;4.25;2.83;;;;;;;;;;5111623;28;20047;-65
2023/06/16 14:14:36;;;;;;;4.77;3.10;;;;;;;;;;5113531;28;20044;-66
2023/06/16 14:17:02;;;;;;;4.28;3.15;;;;;;;;;;5110617;27;20050;-65
2023/06/16 14:19:31;;;;;;;4.47;2.92;;;;;;;;;;5109778;28;20420;-66
2023/06/16 14:21:57;;;;;;;;;;;;;;;;;;5110216;28;20052;-64
2023/06/16 14:24:24;;;;;;;4.38;3.28;;;;;;;;;;5109253;28;19931;-64
2023/06/16 14:26:51;;;;;;;4.57;3.10;;;;;;;;;;5103252;28;20055;-65
2023/06/16 14:29:18;;;;;;;3.53;2.88;;;;;;;;;;5107651;28;20048;-64
2023/06/16 14:31:44;;;;;;;4.40;3.08;;;;;;;;;;5108631;28;20047;-62
2023/06/16 14:34:11;;;;;;;4.38;3.03;;;;;;;;;;5099490;28;20044;-61
2023/06/16 14:36:39;;;;;;;4.07;3.00;;;;;;;;;;5111196;27;20055;-64
2023/06/16 14:39:06;;;;;;;5.80;3.55;;;;;;;;;;5101347;27;20373;-64
2023/06/16 14:41:36;;;;;;;5.85;3.60;;;;;;;;;;5109835;28;20068;-64
2023/06/16 14:44:03;;;;;;;4.18;2.83;;;;;;;;;;5100406;28;20039;-64
2023/06/16 14:46:29;;;;;;;4.55;3.28;;;;;;;;;;5111875;28;20057;-64
2023/06/16 14:48:56;;;;;;;4.10;3.40;;;;;;;;;;5100692;28;20047;-64